This is the latest recevied weather packets stored in our database for station/object OE6PLD-13. If no packets are shown the sender has not sent any weather packets the latest 1 day(s).
| Time | Temp. | Humidity | Pressure | Rain* | Wind** | Luminosity | Snow |
|---|---|---|---|---|---|---|---|
| 1778066939 | 23.33° C | 50% | 1013.4 hPa | 0.76 mm | - | 661 W/m² | - |
| 1778066389 | 22.22° C | 51% | 1013.3 hPa | 0.76 mm | - | 612 W/m² | - |
| 1778066022 | 22.78° C | 51% | 1013.4 hPa | 0.76 mm | - | 647 W/m² | - |
| 1778065472 | 23.33° C | 50% | 1013.4 hPa | 0.76 mm | - | 642 W/m² | - |
| 1778065105 | 21.67° C | 55% | 1013.4 hPa | 0.76 mm | - | 735 W/m² | - |
| 1778064922 | 21.67° C | 57% | 1013.4 hPa | 0.76 mm | - | 412 W/m² | - |
| 1778064555 | 22.22° C | 54% | 1013.6 hPa | 0.76 mm | - | 189 W/m² | - |
| 1778064372 | 22.78° C | 52% | 1013.6 hPa | 0.76 mm | - | 211 W/m² | - |
| 1778064188 | 22.78° C | 50% | 1013.1 hPa | 0.76 mm | - | 213 W/m² | - |
| 1778063455 | 23.89° C | 45% | 1013.3 hPa | 0.76 mm | - | 231 W/m² | - |
| 1778063088 | 23.89° C | 44% | 1013.2 hPa | 0.76 mm | - | 627 W/m² | - |
| 1778062171 | 23.33° C | 44% | 1013.4 hPa | 0.76 mm | - | 943 W/m² | - |
| 1778061804 | 23.89° C | 41% | 1013.1 hPa | 0.76 mm | - | 411 W/m² | - |
| 1778061621 | 23.33° C | 43% | 1013.1 hPa | 0.76 mm | - | 341 W/m² | - |
| 1778061071 | 23.33° C | 42% | 1013.2 hPa | 0.76 mm | - | 510 W/m² | - |
| 1778060704 | 23.89° C | 41% | 1013.2 hPa | 0.76 mm | - | 445 W/m² | - |
| 1778060521 | 23.33° C | 43% | 1013.1 hPa | 0.76 mm | - | 700 W/m² | - |
| 1778060154 | 23.89° C | 41% | 1013.2 hPa | 0.76 mm | - | 710 W/m² | - |
| 1778059971 | 23.33° C | 43% | 1013.4 hPa | 0.76 mm | - | 654 W/m² | - |
| 1778059787 | 23.33° C | 44% | 1013.3 hPa | 0.76 mm | - | 645 W/m² | - |
| 1778059604 | 22.78° C | 46% | 1013.3 hPa | 0.76 mm | - | 645 W/m² | - |
| 1778059421 | 23.33° C | 44% | 1013.4 hPa | 0.76 mm | - | 669 W/m² | - |
| 1778059237 | 22.78° C | 47% | 1013.5 hPa | 0.76 mm | - | 662 W/m² | - |
| 1778059054 | 22.78° C | 45% | 1013.5 hPa | 0.76 mm | - | 660 W/m² | - |
| 1778058504 | 22.78° C | 47% | 1013.9 hPa | 0.76 mm | - | 650 W/m² | - |
* Rain latest hour (hover to see other rain measurements)
** Current wind speed in m/s (hover to see current wind gust speed)